sensor_id;sensor_type;location;lat;lon;timestamp;P1;durP1;ratioP1;P2;durP2;ratioP2
76320;SDS011;65132;52.088;5.402;2023-07-16T00:00:41;3.40;;;0.90;;
76320;SDS011;65132;52.088;5.402;2023-07-16T00:03:14;3.88;;;1.10;;
76320;SDS011;65132;52.088;5.402;2023-07-16T00:05:50;8.05;;;1.30;;
76320;SDS011;65132;52.088;5.402;2023-07-16T00:08:16;2.42;;;0.95;;
76320;SDS011;65132;52.088;5.402;2023-07-16T00:10:43;5.47;;;1.38;;
76320;SDS011;65132;52.088;5.402;2023-07-16T00:13:09;4.20;;;1.40;;
76320;SDS011;65132;52.088;5.402;2023-07-16T00:15:39;5.45;;;1.30;;
76320;SDS011;65132;52.088;5.402;2023-07-16T00:18:05;5.05;;;1.20;;
76320;SDS011;65132;52.088;5.402;2023-07-16T00:20:32;3.55;;;1.17;;
76320;SDS011;65132;52.088;5.402;2023-07-16T00:22:58;4.53;;;1.05;;
76320;SDS011;65132;52.088;5.402;2023-07-16T00:25:24;5.00;;;1.20;;
76320;SDS011;65132;52.088;5.402;2023-07-16T00:27:55;24.45;;;1.63;;
76320;SDS011;65132;52.088;5.402;2023-07-16T00:30:37;6.65;;;1.20;;
76320;SDS011;65132;52.088;5.402;2023-07-16T00:33:06;5.13;;;0.95;;
76320;SDS011;65132;52.088;5.402;2023-07-16T00:35:33;5.82;;;1.15;;
76320;SDS011;65132;52.088;5.402;2023-07-16T00:38:04;4.95;;;1.02;;
76320;SDS011;65132;52.088;5.402;2023-07-16T00:40:34;4.55;;;1.45;;
76320;SDS011;65132;52.088;5.402;2023-07-16T00:43:01;4.35;;;1.30;;
76320;SDS011;65132;52.088;5.402;2023-07-16T00:45:29;4.63;;;1.40;;
76320;SDS011;65132;52.088;5.402;2023-07-16T00:47:56;4.90;;;1.27;;
76320;SDS011;65132;52.088;5.402;2023-07-16T00:50:27;5.82;;;1.63;;
76320;SDS011;65132;52.088;5.402;2023-07-16T00:55:21;3.40;;;1.25;;
76320;SDS011;65132;52.088;5.402;2023-07-16T00:57:47;4.72;;;1.10;;
76320;SDS011;65132;52.088;5.402;2023-07-16T01:00:13;5.07;;;1.20;;
76320;SDS011;65132;52.088;5.402;2023-07-16T01:02:43;5.57;;;1.15;;
76320;SDS011;65132;52.088;5.402;2023-07-16T01:05:16;4.50;;;1.30;;
76320;SDS011;65132;52.088;5.402;2023-07-16T01:07:45;5.93;;;1.30;;
76320;SDS011;65132;52.088;5.402;2023-07-16T01:10:14;6.22;;;1.35;;
76320;SDS011;65132;52.088;5.402;2023-07-16T01:12:41;5.30;;;0.98;;
76320;SDS011;65132;52.088;5.402;2023-07-16T01:15:11;5.07;;;1.40;;
76320;SDS011;65132;52.088;5.402;2023-07-16T01:17:38;8.85;;;1.60;;
76320;SDS011;65132;52.088;5.402;2023-07-16T01:20:10;3.63;;;1.10;;
76320;SDS011;65132;52.088;5.402;2023-07-16T01:28:03;3.28;;;1.38;;
76320;SDS011;65132;52.088;5.402;2023-07-16T01:30:34;5.43;;;1.35;;
76320;SDS011;65132;52.088;5.402;2023-07-16T01:33:03;4.00;;;1.13;;
76320;SDS011;65132;52.088;5.402;2023-07-16T01:36:01;9.60;;;1.80;;
76320;SDS011;65132;52.088;5.402;2023-07-16T01:38:30;11.02;;;2.40;;
76320;SDS011;65132;52.088;5.402;2023-07-16T01:41:05;4.68;;;1.08;;
76320;SDS011;65132;52.088;5.402;2023-07-16T01:43:32;6.82;;;1.65;;
76320;SDS011;65132;52.088;5.402;2023-07-16T01:45:59;4.35;;;1.08;;
76320;SDS011;65132;52.088;5.402;2023-07-16T01:50:59;6.70;;;1.63;;
76320;SDS011;65132;52.088;5.402;2023-07-16T01:53:26;11.13;;;1.77;;
76320;SDS011;65132;52.088;5.402;2023-07-16T01:55:54;7.72;;;1.80;;
76320;SDS011;65132;52.088;5.402;2023-07-16T01:58:20;8.00;;;1.95;;
76320;SDS011;65132;52.088;5.402;2023-07-16T02:00:47;6.72;;;1.60;;
76320;SDS011;65132;52.088;5.402;2023-07-16T02:03:19;5.03;;;1.70;;
76320;SDS011;65132;52.088;5.402;2023-07-16T02:05:48;7.78;;;1.95;;
76320;SDS011;65132;52.088;5.402;2023-07-16T02:08:22;7.00;;;1.75;;
76320;SDS011;65132;52.088;5.402;2023-07-16T02:10:50;5.53;;;2.03;;
76320;SDS011;65132;52.088;5.402;2023-07-16T02:13:16;7.43;;;2.58;;
76320;SDS011;65132;52.088;5.402;2023-07-16T02:15:45;8.23;;;1.83;;
76320;SDS011;65132;52.088;5.402;2023-07-16T02:18:11;7.72;;;2.75;;
76320;SDS011;65132;52.088;5.402;2023-07-16T02:20:38;7.93;;;2.13;;
76320;SDS011;65132;52.088;5.402;2023-07-16T02:23:06;9.93;;;1.90;;
76320;SDS011;65132;52.088;5.402;2023-07-16T02:25:33;9.45;;;2.00;;
76320;SDS011;65132;52.088;5.402;2023-07-16T02:27:59;6.43;;;2.35;;
76320;SDS011;65132;52.088;5.402;2023-07-16T02:30:26;5.25;;;1.77;;
76320;SDS011;65132;52.088;5.402;2023-07-16T02:32:55;9.23;;;2.03;;
76320;SDS011;65132;52.088;5.402;2023-07-16T02:35:22;5.40;;;2.03;;
76320;SDS011;65132;52.088;5.402;2023-07-16T02:37:48;6.28;;;1.83;;
76320;SDS011;65132;52.088;5.402;2023-07-16T02:40:15;8.60;;;2.03;;
76320;SDS011;65132;52.088;5.402;2023-07-16T02:42:42;7.88;;;1.80;;
76320;SDS011;65132;52.088;5.402;2023-07-16T02:45:11;9.48;;;2.28;;
76320;SDS011;65132;52.088;5.402;2023-07-16T02:47:42;8.02;;;1.60;;
76320;SDS011;65132;52.088;5.402;2023-07-16T02:50:09;8.98;;;2.17;;
76320;SDS011;65132;52.088;5.402;2023-07-16T02:52:38;5.93;;;1.58;;
76320;SDS011;65132;52.088;5.402;2023-07-16T02:55:07;7.65;;;2.13;;
76320;SDS011;65132;52.088;5.402;2023-07-16T02:57:33;8.05;;;1.90;;
76320;SDS011;65132;52.088;5.402;2023-07-16T03:00:06;6.32;;;1.48;;
76320;SDS011;65132;52.088;5.402;2023-07-16T03:02:33;6.97;;;2.28;;
76320;SDS011;65132;52.088;5.402;2023-07-16T03:05:00;6.13;;;1.70;;
76320;SDS011;65132;52.088;5.402;2023-07-16T03:07:26;9.60;;;2.53;;
76320;SDS011;65132;52.088;5.402;2023-07-16T03:09:53;7.47;;;1.83;;
76320;SDS011;65132;52.088;5.402;2023-07-16T03:12:19;5.30;;;2.30;;
76320;SDS011;65132;52.088;5.402;2023-07-16T03:14:50;4.85;;;1.95;;
76320;SDS011;65132;52.088;5.402;2023-07-16T03:17:21;6.50;;;1.90;;
76320;SDS011;65132;52.088;5.402;2023-07-16T03:19:50;9.68;;;2.47;;
76320;SDS011;65132;52.088;5.402;2023-07-16T03:22:17;7.47;;;1.80;;
76320;SDS011;65132;52.088;5.402;2023-07-16T03:24:43;7.88;;;2.10;;
76320;SDS011;65132;52.088;5.402;2023-07-16T03:27:10;7.75;;;2.45;;
76320;SDS011;65132;52.088;5.402;2023-07-16T03:29:46;7.82;;;1.75;;
76320;SDS011;65132;52.088;5.402;2023-07-16T03:32:20;7.45;;;2.25;;
76320;SDS011;65132;52.088;5.402;2023-07-16T03:34:47;4.63;;;1.55;;
76320;SDS011;65132;52.088;5.402;2023-07-16T03:37:13;6.00;;;1.83;;
76320;SDS011;65132;52.088;5.402;2023-07-16T03:39:39;7.30;;;1.85;;
76320;SDS011;65132;52.088;5.402;2023-07-16T03:42:09;5.63;;;2.00;;
76320;SDS011;65132;52.088;5.402;2023-07-16T03:44:36;10.60;;;2.50;;
76320;SDS011;65132;52.088;5.402;2023-07-16T03:47:05;8.07;;;1.50;;
76320;SDS011;65132;52.088;5.402;2023-07-16T03:49:33;7.70;;;2.42;;
76320;SDS011;65132;52.088;5.402;2023-07-16T03:52:01;7.40;;;1.50;;
76320;SDS011;65132;52.088;5.402;2023-07-16T03:54:27;9.20;;;1.80;;
76320;SDS011;65132;52.088;5.402;2023-07-16T03:57:01;4.88;;;1.83;;
76320;SDS011;65132;52.088;5.402;2023-07-16T03:59:34;6.38;;;2.03;;
76320;SDS011;65132;52.088;5.402;2023-07-16T04:02:06;11.07;;;1.85;;
76320;SDS011;65132;52.088;5.402;2023-07-16T04:04:42;6.78;;;2.20;;
76320;SDS011;65132;52.088;5.402;2023-07-16T04:07:26;7.95;;;2.60;;
76320;SDS011;65132;52.088;5.402;2023-07-16T04:09:56;8.30;;;2.60;;
76320;SDS011;65132;52.088;5.402;2023-07-16T04:12:30;7.28;;;2.03;;
76320;SDS011;65132;52.088;5.402;2023-07-16T04:14:57;5.60;;;2.25;;
76320;SDS011;65132;52.088;5.402;2023-07-16T04:17:23;8.70;;;2.17;;
76320;SDS011;65132;52.088;5.402;2023-07-16T04:19:57;8.35;;;2.53;;
76320;SDS011;65132;52.088;5.402;2023-07-16T04:22:28;4.90;;;2.10;;
76320;SDS011;65132;52.088;5.402;2023-07-16T04:24:55;5.00;;;1.88;;
76320;SDS011;65132;52.088;5.402;2023-07-16T04:27:24;7.07;;;2.28;;
76320;SDS011;65132;52.088;5.402;2023-07-16T04:30:01;9.77;;;3.28;;
76320;SDS011;65132;52.088;5.402;2023-07-16T04:32:33;8.05;;;2.63;;
76320;SDS011;65132;52.088;5.402;2023-07-16T04:35:16;6.85;;;2.22;;
76320;SDS011;65132;52.088;5.402;2023-07-16T04:37:43;4.40;;;1.95;;
76320;SDS011;65132;52.088;5.402;2023-07-16T04:40:13;6.90;;;2.30;;
76320;SDS011;65132;52.088;5.402;2023-07-16T04:42:44;6.15;;;2.05;;
76320;SDS011;65132;52.088;5.402;2023-07-16T04:45:12;5.60;;;2.30;;
76320;SDS011;65132;52.088;5.402;2023-07-16T04:47:40;6.70;;;2.40;;
76320;SDS011;65132;52.088;5.402;2023-07-16T04:50:09;6.97;;;2.70;;
76320;SDS011;65132;52.088;5.402;2023-07-16T04:52:42;8.70;;;2.72;;
76320;SDS011;65132;52.088;5.402;2023-07-16T04:55:08;5.65;;;2.53;;
76320;SDS011;65132;52.088;5.402;2023-07-16T04:57:35;5.85;;;1.83;;
76320;SDS011;65132;52.088;5.402;2023-07-16T05:00:04;4.95;;;2.25;;
76320;SDS011;65132;52.088;5.402;2023-07-16T05:02:32;7.45;;;2.83;;
76320;SDS011;65132;52.088;5.402;2023-07-16T05:04:59;7.38;;;2.15;;
76320;SDS011;65132;52.088;5.402;2023-07-16T05:07:25;7.65;;;2.90;;
76320;SDS011;65132;52.088;5.402;2023-07-16T05:09:54;9.20;;;2.83;;
76320;SDS011;65132;52.088;5.402;2023-07-16T05:12:28;9.75;;;2.80;;
76320;SDS011;65132;52.088;5.402;2023-07-16T05:14:57;7.68;;;2.75;;
76320;SDS011;65132;52.088;5.402;2023-07-16T05:17:24;7.00;;;2.45;;
76320;SDS011;65132;52.088;5.402;2023-07-16T05:19:53;6.10;;;2.25;;
76320;SDS011;65132;52.088;5.402;2023-07-16T05:22:23;5.88;;;2.53;;
76320;SDS011;65132;52.088;5.402;2023-07-16T05:24:49;5.57;;;1.58;;
76320;SDS011;65132;52.088;5.402;2023-07-16T05:27:16;8.02;;;2.70;;
76320;SDS011;65132;52.088;5.402;2023-07-16T05:29:42;6.25;;;2.42;;
76320;SDS011;65132;52.088;5.402;2023-07-16T05:32:10;9.63;;;3.20;;
76320;SDS011;65132;52.088;5.402;2023-07-16T05:34:43;9.35;;;2.75;;
76320;SDS011;65132;52.088;5.402;2023-07-16T05:37:11;6.63;;;2.75;;
76320;SDS011;65132;52.088;5.402;2023-07-16T05:39:41;6.57;;;2.67;;
76320;SDS011;65132;52.088;5.402;2023-07-16T05:42:10;5.38;;;2.40;;
76320;SDS011;65132;52.088;5.402;2023-07-16T05:44:36;9.75;;;2.65;;
76320;SDS011;65132;52.088;5.402;2023-07-16T05:47:05;10.25;;;2.47;;
76320;SDS011;65132;52.088;5.402;2023-07-16T05:49:35;6.53;;;2.65;;
76320;SDS011;65132;52.088;5.402;2023-07-16T05:52:07;7.60;;;3.08;;
76320;SDS011;65132;52.088;5.402;2023-07-16T05:54:34;5.60;;;2.47;;
76320;SDS011;65132;52.088;5.402;2023-07-16T05:57:13;8.98;;;3.50;;
76320;SDS011;65132;52.088;5.402;2023-07-16T05:59:44;8.80;;;3.45;;
76320;SDS011;65132;52.088;5.402;2023-07-16T06:02:10;10.45;;;3.72;;
76320;SDS011;65132;52.088;5.402;2023-07-16T06:04:37;8.80;;;3.03;;
76320;SDS011;65132;52.088;5.402;2023-07-16T06:07:04;6.10;;;2.85;;
76320;SDS011;65132;52.088;5.402;2023-07-16T06:09:39;6.80;;;3.17;;
76320;SDS011;65132;52.088;5.402;2023-07-16T06:12:08;6.80;;;2.92;;
76320;SDS011;65132;52.088;5.402;2023-07-16T06:14:34;6.30;;;2.85;;
76320;SDS011;65132;52.088;5.402;2023-07-16T06:17:00;7.00;;;3.05;;
76320;SDS011;65132;52.088;5.402;2023-07-16T06:19:33;7.78;;;3.40;;
76320;SDS011;65132;52.088;5.402;2023-07-16T06:21:59;8.82;;;3.75;;
76320;SDS011;65132;52.088;5.402;2023-07-16T06:24:26;8.98;;;3.03;;
76320;SDS011;65132;52.088;5.402;2023-07-16T06:26:58;8.90;;;3.40;;
76320;SDS011;65132;52.088;5.402;2023-07-16T06:29:30;7.28;;;2.95;;
76320;SDS011;65132;52.088;5.402;2023-07-16T06:31:57;8.00;;;3.17;;
76320;SDS011;65132;52.088;5.402;2023-07-16T06:34:24;7.25;;;3.17;;
76320;SDS011;65132;52.088;5.402;2023-07-16T06:36:52;6.60;;;2.58;;
76320;SDS011;65132;52.088;5.402;2023-07-16T06:39:21;7.93;;;3.28;;
76320;SDS011;65132;52.088;5.402;2023-07-16T06:41:54;11.25;;;3.78;;
76320;SDS011;65132;52.088;5.402;2023-07-16T06:44:29;7.97;;;3.28;;
76320;SDS011;65132;52.088;5.402;2023-07-16T06:46:56;7.25;;;3.17;;
76320;SDS011;65132;52.088;5.402;2023-07-16T06:49:25;8.23;;;3.08;;
76320;SDS011;65132;52.088;5.402;2023-07-16T06:51:54;7.07;;;3.00;;
76320;SDS011;65132;52.088;5.402;2023-07-16T06:54:34;8.25;;;3.35;;
76320;SDS011;65132;52.088;5.402;2023-07-16T06:57:01;10.95;;;3.38;;
76320;SDS011;65132;52.088;5.402;2023-07-16T06:59:31;9.13;;;3.28;;
76320;SDS011;65132;52.088;5.402;2023-07-16T07:02:00;9.57;;;3.60;;
76320;SDS011;65132;52.088;5.402;2023-07-16T07:04:36;8.77;;;3.60;;
76320;SDS011;65132;52.088;5.402;2023-07-16T07:07:03;7.22;;;2.60;;
76320;SDS011;65132;52.088;5.402;2023-07-16T07:09:33;10.05;;;3.33;;
76320;SDS011;65132;52.088;5.402;2023-07-16T07:11:59;7.38;;;3.25;;
76320;SDS011;65132;52.088;5.402;2023-07-16T07:14:27;11.63;;;3.38;;
76320;SDS011;65132;52.088;5.402;2023-07-16T07:16:56;8.18;;;3.22;;
76320;SDS011;65132;52.088;5.402;2023-07-16T07:19:22;9.60;;;3.47;;
76320;SDS011;65132;52.088;5.402;2023-07-16T07:21:57;7.80;;;2.78;;
76320;SDS011;65132;52.088;5.402;2023-07-16T07:24:32;6.95;;;2.97;;
76320;SDS011;65132;52.088;5.402;2023-07-16T07:27:00;7.60;;;3.22;;
76320;SDS011;65132;52.088;5.402;2023-07-16T07:29:29;6.82;;;2.70;;
76320;SDS011;65132;52.088;5.402;2023-07-16T07:31:59;9.32;;;3.25;;
76320;SDS011;65132;52.088;5.402;2023-07-16T07:34:28;5.57;;;2.53;;
76320;SDS011;65132;52.088;5.402;2023-07-16T07:36:57;6.75;;;2.42;;
76320;SDS011;65132;52.088;5.402;2023-07-16T07:39:28;10.32;;;3.08;;
76320;SDS011;65132;52.088;5.402;2023-07-16T07:42:08;7.97;;;3.15;;
76320;SDS011;65132;52.088;5.402;2023-07-16T07:44:40;9.93;;;3.28;;
76320;SDS011;65132;52.088;5.402;2023-07-16T07:47:16;8.07;;;3.40;;
76320;SDS011;65132;52.088;5.402;2023-07-16T07:49:42;8.55;;;3.42;;
76320;SDS011;65132;52.088;5.402;2023-07-16T07:52:11;10.05;;;3.88;;
76320;SDS011;65132;52.088;5.402;2023-07-16T07:54:38;6.90;;;2.85;;
76320;SDS011;65132;52.088;5.402;2023-07-16T07:57:04;6.10;;;2.88;;
76320;SDS011;65132;52.088;5.402;2023-07-16T07:59:32;7.53;;;3.53;;
76320;SDS011;65132;52.088;5.402;2023-07-16T08:01:58;8.27;;;3.45;;
76320;SDS011;65132;52.088;5.402;2023-07-16T08:04:25;9.27;;;3.45;;
76320;SDS011;65132;52.088;5.402;2023-07-16T08:06:59;7.10;;;3.10;;
76320;SDS011;65132;52.088;5.402;2023-07-16T08:09:25;7.45;;;2.88;;
76320;SDS011;65132;52.088;5.402;2023-07-16T08:11:54;11.00;;;3.47;;
76320;SDS011;65132;52.088;5.402;2023-07-16T08:14:34;9.45;;;3.55;;
76320;SDS011;65132;52.088;5.402;2023-07-16T08:17:01;8.50;;;3.63;;
76320;SDS011;65132;52.088;5.402;2023-07-16T08:19:27;7.93;;;3.40;;
76320;SDS011;65132;52.088;5.402;2023-07-16T08:21:58;9.43;;;3.05;;
76320;SDS011;65132;52.088;5.402;2023-07-16T08:24:38;9.55;;;3.20;;
76320;SDS011;65132;52.088;5.402;2023-07-16T08:27:05;7.68;;;2.92;;
76320;SDS011;65132;52.088;5.402;2023-07-16T08:29:42;8.35;;;3.13;;
76320;SDS011;65132;52.088;5.402;2023-07-16T08:34:38;7.72;;;3.78;;
76320;SDS011;65132;52.088;5.402;2023-07-16T08:37:09;8.55;;;3.45;;
76320;SDS011;65132;52.088;5.402;2023-07-16T08:42:03;8.30;;;3.50;;
76320;SDS011;65132;52.088;5.402;2023-07-16T08:44:32;8.88;;;3.15;;
76320;SDS011;65132;52.088;5.402;2023-07-16T08:47:02;10.55;;;3.72;;
76320;SDS011;65132;52.088;5.402;2023-07-16T08:49:33;7.13;;;3.47;;
76320;SDS011;65132;52.088;5.402;2023-07-16T08:52:00;10.57;;;3.30;;
76320;SDS011;65132;52.088;5.402;2023-07-16T08:54:35;10.02;;;4.18;;
76320;SDS011;65132;52.088;5.402;2023-07-16T08:57:08;7.25;;;3.08;;
76320;SDS011;65132;52.088;5.402;2023-07-16T08:59:34;7.50;;;4.18;;
76320;SDS011;65132;52.088;5.402;2023-07-16T09:02:00;9.07;;;3.85;;
76320;SDS011;65132;52.088;5.402;2023-07-16T09:04:34;11.50;;;3.50;;
76320;SDS011;65132;52.088;5.402;2023-07-16T09:07:04;7.30;;;3.50;;
76320;SDS011;65132;52.088;5.402;2023-07-16T09:09:34;7.90;;;3.30;;
76320;SDS011;65132;52.088;5.402;2023-07-16T09:12:06;7.55;;;4.03;;
76320;SDS011;65132;52.088;5.402;2023-07-16T09:14:32;8.82;;;3.53;;
76320;SDS011;65132;52.088;5.402;2023-07-16T09:17:00;7.88;;;3.30;;
76320;SDS011;65132;52.088;5.402;2023-07-16T09:19:26;8.80;;;3.20;;
76320;SDS011;65132;52.088;5.402;2023-07-16T09:21:57;12.05;;;4.00;;
76320;SDS011;65132;52.088;5.402;2023-07-16T09:24:28;8.98;;;3.30;;
76320;SDS011;65132;52.088;5.402;2023-07-16T09:26:55;9.93;;;3.38;;
76320;SDS011;65132;52.088;5.402;2023-07-16T09:29:21;6.90;;;3.10;;
76320;SDS011;65132;52.088;5.402;2023-07-16T09:32:04;7.05;;;3.10;;
76320;SDS011;65132;52.088;5.402;2023-07-16T09:34:35;7.32;;;3.42;;
76320;SDS011;65132;52.088;5.402;2023-07-16T09:37:10;7.43;;;3.22;;
76320;SDS011;65132;52.088;5.402;2023-07-16T09:39:37;6.68;;;3.20;;
76320;SDS011;65132;52.088;5.402;2023-07-16T09:42:06;7.28;;;3.40;;
76320;SDS011;65132;52.088;5.402;2023-07-16T09:44:35;6.68;;;2.70;;
76320;SDS011;65132;52.088;5.402;2023-07-16T09:47:04;6.38;;;3.20;;
76320;SDS011;65132;52.088;5.402;2023-07-16T09:52:01;9.32;;;3.28;;
76320;SDS011;65132;52.088;5.402;2023-07-16T09:54:32;6.88;;;3.10;;
76320;SDS011;65132;52.088;5.402;2023-07-16T09:57:01;8.38;;;3.40;;
76320;SDS011;65132;52.088;5.402;2023-07-16T09:59:31;8.43;;;3.83;;
76320;SDS011;65132;52.088;5.402;2023-07-16T10:04:36;9.05;;;3.08;;
76320;SDS011;65132;52.088;5.402;2023-07-16T10:07:05;10.20;;;3.42;;
76320;SDS011;65132;52.088;5.402;2023-07-16T10:09:56;7.15;;;3.15;;
76320;SDS011;65132;52.088;5.402;2023-07-16T10:12:24;9.77;;;3.55;;
76320;SDS011;65132;52.088;5.402;2023-07-16T10:14:53;7.68;;;4.20;;
76320;SDS011;65132;52.088;5.402;2023-07-16T10:17:26;7.85;;;3.38;;
76320;SDS011;65132;52.088;5.402;2023-07-16T10:20:01;6.75;;;3.90;;
76320;SDS011;65132;52.088;5.402;2023-07-16T10:22:46;6.35;;;3.05;;
76320;SDS011;65132;52.088;5.402;2023-07-16T10:27:46;7.88;;;3.60;;
76320;SDS011;65132;52.088;5.402;2023-07-16T10:30:16;10.65;;;3.13;;
76320;SDS011;65132;52.088;5.402;2023-07-16T10:32:50;6.47;;;3.20;;
76320;SDS011;65132;52.088;5.402;2023-07-16T10:35:16;6.95;;;2.70;;
76320;SDS011;65132;52.088;5.402;2023-07-16T10:37:43;5.60;;;2.80;;
76320;SDS011;65132;52.088;5.402;2023-07-16T10:40:12;8.00;;;3.33;;
76320;SDS011;65132;52.088;5.402;2023-07-16T10:45:09;11.23;;;2.95;;
76320;SDS011;65132;52.088;5.402;2023-07-16T10:47:37;6.03;;;3.00;;
76320;SDS011;65132;52.088;5.402;2023-07-16T10:50:05;6.45;;;3.22;;
76320;SDS011;65132;52.088;5.402;2023-07-16T10:52:45;6.70;;;2.78;;
76320;SDS011;65132;52.088;5.402;2023-07-16T10:55:11;9.27;;;3.40;;
76320;SDS011;65132;52.088;5.402;2023-07-16T10:57:38;9.57;;;4.63;;
76320;SDS011;65132;52.088;5.402;2023-07-16T11:00:06;7.15;;;3.13;;
76320;SDS011;65132;52.088;5.402;2023-07-16T11:02:38;7.18;;;3.75;;
76320;SDS011;65132;52.088;5.402;2023-07-16T11:05:09;9.10;;;3.13;;
76320;SDS011;65132;52.088;5.402;2023-07-16T11:07:38;6.47;;;3.17;;
76320;SDS011;65132;52.088;5.402;2023-07-16T11:10:07;7.13;;;3.40;;
76320;SDS011;65132;52.088;5.402;2023-07-16T11:12:41;9.43;;;3.03;;
76320;SDS011;65132;52.088;5.402;2023-07-16T11:15:12;7.78;;;2.92;;
76320;SDS011;65132;52.088;5.402;2023-07-16T11:17:41;8.85;;;3.78;;
76320;SDS011;65132;52.088;5.402;2023-07-16T11:20:13;9.93;;;3.22;;
76320;SDS011;65132;52.088;5.402;2023-07-16T11:22:46;5.57;;;2.97;;
76320;SDS011;65132;52.088;5.402;2023-07-16T11:25:23;5.97;;;3.20;;
76320;SDS011;65132;52.088;5.402;2023-07-16T11:27:50;5.93;;;2.72;;
76320;SDS011;65132;52.088;5.402;2023-07-16T11:32:48;9.05;;;3.30;;
76320;SDS011;65132;52.088;5.402;2023-07-16T11:35:16;7.72;;;3.08;;
76320;SDS011;65132;52.088;5.402;2023-07-16T11:37:44;6.22;;;3.17;;
76320;SDS011;65132;52.088;5.402;2023-07-16T11:40:18;7.78;;;3.70;;
76320;SDS011;65132;52.088;5.402;2023-07-16T11:42:46;7.57;;;2.83;;
76320;SDS011;65132;52.088;5.402;2023-07-16T11:45:16;8.40;;;3.17;;
76320;SDS011;65132;52.088;5.402;2023-07-16T11:47:59;8.00;;;2.55;;
76320;SDS011;65132;52.088;5.402;2023-07-16T11:50:30;7.93;;;2.42;;
76320;SDS011;65132;52.088;5.402;2023-07-16T11:52:59;5.00;;;2.08;;
76320;SDS011;65132;52.088;5.402;2023-07-16T11:55:26;4.22;;;1.90;;
76320;SDS011;65132;52.088;5.402;2023-07-16T11:57:54;5.47;;;1.83;;
76320;SDS011;65132;52.088;5.402;2023-07-16T12:00:20;4.68;;;2.00;;
76320;SDS011;65132;52.088;5.402;2023-07-16T12:02:47;5.68;;;2.20;;
76320;SDS011;65132;52.088;5.402;2023-07-16T12:05:22;4.53;;;1.70;;
76320;SDS011;65132;52.088;5.402;2023-07-16T12:08:10;2.78;;;1.40;;
76320;SDS011;65132;52.088;5.402;2023-07-16T12:10:39;4.07;;;1.90;;
76320;SDS011;65132;52.088;5.402;2023-07-16T12:13:07;2.95;;;1.02;;
76320;SDS011;65132;52.088;5.402;2023-07-16T12:15:37;3.83;;;1.30;;
76320;SDS011;65132;52.088;5.402;2023-07-16T12:18:06;3.60;;;1.33;;
76320;SDS011;65132;52.088;5.402;2023-07-16T12:20:33;5.13;;;1.65;;
76320;SDS011;65132;52.088;5.402;2023-07-16T12:23:00;3.45;;;1.48;;
76320;SDS011;65132;52.088;5.402;2023-07-16T12:25:28;3.78;;;1.60;;
76320;SDS011;65132;52.088;5.402;2023-07-16T12:27:57;4.32;;;1.98;;
76320;SDS011;65132;52.088;5.402;2023-07-16T12:30:27;3.95;;;1.35;;
76320;SDS011;65132;52.088;5.402;2023-07-16T12:33:01;3.47;;;1.80;;
76320;SDS011;65132;52.088;5.402;2023-07-16T12:38:35;3.92;;;1.77;;
76320;SDS011;65132;52.088;5.402;2023-07-16T12:41:05;4.10;;;1.90;;
76320;SDS011;65132;52.088;5.402;2023-07-16T12:43:37;3.35;;;1.50;;
76320;SDS011;65132;52.088;5.402;2023-07-16T12:46:06;5.40;;;1.60;;
76320;SDS011;65132;52.088;5.402;2023-07-16T12:48:32;3.70;;;1.23;;
76320;SDS011;65132;52.088;5.402;2023-07-16T12:50:59;2.97;;;1.38;;
76320;SDS011;65132;52.088;5.402;2023-07-16T12:53:25;6.43;;;1.38;;
76320;SDS011;65132;52.088;5.402;2023-07-16T12:55:52;2.65;;;1.20;;
76320;SDS011;65132;52.088;5.402;2023-07-16T12:58:21;4.55;;;1.40;;
76320;SDS011;65132;52.088;5.402;2023-07-16T13:00:51;4.05;;;1.25;;
76320;SDS011;65132;52.088;5.402;2023-07-16T13:03:20;3.92;;;1.08;;
76320;SDS011;65132;52.088;5.402;2023-07-16T13:05:52;4.15;;;1.60;;
76320;SDS011;65132;52.088;5.402;2023-07-16T13:10:49;3.42;;;1.25;;
76320;SDS011;65132;52.088;5.402;2023-07-16T13:13:19;3.70;;;1.10;;
76320;SDS011;65132;52.088;5.402;2023-07-16T13:15:46;3.83;;;1.20;;
76320;SDS011;65132;52.088;5.402;2023-07-16T13:18:12;2.15;;;0.82;;
76320;SDS011;65132;52.088;5.402;2023-07-16T13:20:44;4.88;;;1.75;;
76320;SDS011;65132;52.088;5.402;2023-07-16T13:23:10;3.45;;;1.08;;
76320;SDS011;65132;52.088;5.402;2023-07-16T13:25:38;2.72;;;1.00;;
76320;SDS011;65132;52.088;5.402;2023-07-16T13:28:07;2.92;;;1.10;;
76320;SDS011;65132;52.088;5.402;2023-07-16T13:30:38;4.05;;;1.10;;
76320;SDS011;65132;52.088;5.402;2023-07-16T13:33:07;4.75;;;1.20;;
76320;SDS011;65132;52.088;5.402;2023-07-16T13:35:34;5.78;;;1.25;;
76320;SDS011;65132;52.088;5.402;2023-07-16T13:38:01;3.78;;;1.20;;
76320;SDS011;65132;52.088;5.402;2023-07-16T13:40:28;2.38;;;0.90;;
76320;SDS011;65132;52.088;5.402;2023-07-16T13:42:59;6.50;;;1.63;;
76320;SDS011;65132;52.088;5.402;2023-07-16T13:45:27;4.47;;;1.38;;
76320;SDS011;65132;52.088;5.402;2023-07-16T13:47:54;3.17;;;0.80;;
76320;SDS011;65132;52.088;5.402;2023-07-16T13:50:23;3.80;;;0.80;;
76320;SDS011;65132;52.088;5.402;2023-07-16T13:52:52;2.67;;;0.82;;
76320;SDS011;65132;52.088;5.402;2023-07-16T13:55:18;3.17;;;0.98;;
76320;SDS011;65132;52.088;5.402;2023-07-16T13:57:45;3.33;;;1.27;;
76320;SDS011;65132;52.088;5.402;2023-07-16T14:00:13;2.45;;;1.02;;
76320;SDS011;65132;52.088;5.402;2023-07-16T14:02:51;3.58;;;1.17;;
76320;SDS011;65132;52.088;5.402;2023-07-16T14:05:20;4.57;;;0.98;;
76320;SDS011;65132;52.088;5.402;2023-07-16T14:07:49;3.63;;;1.30;;
76320;SDS011;65132;52.088;5.402;2023-07-16T14:10:18;3.33;;;0.60;;
76320;SDS011;65132;52.088;5.402;2023-07-16T14:12:47;3.88;;;0.80;;
76320;SDS011;65132;52.088;5.402;2023-07-16T14:15:19;3.40;;;0.93;;
76320;SDS011;65132;52.088;5.402;2023-07-16T14:17:47;4.88;;;1.35;;
76320;SDS011;65132;52.088;5.402;2023-07-16T14:22:50;2.63;;;0.80;;
76320;SDS011;65132;52.088;5.402;2023-07-16T14:25:19;4.18;;;1.00;;
76320;SDS011;65132;52.088;5.402;2023-07-16T14:27:45;3.38;;;0.70;;
76320;SDS011;65132;52.088;5.402;2023-07-16T14:30:16;2.30;;;1.02;;
76320;SDS011;65132;52.088;5.402;2023-07-16T14:32:45;3.92;;;1.10;;
76320;SDS011;65132;52.088;5.402;2023-07-16T14:35:19;3.00;;;1.02;;
76320;SDS011;65132;52.088;5.402;2023-07-16T14:38:02;2.92;;;1.38;;
76320;SDS011;65132;52.088;5.402;2023-07-16T14:40:32;3.22;;;1.08;;
76320;SDS011;65132;52.088;5.402;2023-07-16T14:42:59;4.20;;;1.25;;
76320;SDS011;65132;52.088;5.402;2023-07-16T14:45:28;3.70;;;1.50;;
76320;SDS011;65132;52.088;5.402;2023-07-16T14:47:56;2.67;;;1.02;;
76320;SDS011;65132;52.088;5.402;2023-07-16T14:50:25;5.25;;;1.45;;
76320;SDS011;65132;52.088;5.402;2023-07-16T14:52:57;3.35;;;1.15;;
76320;SDS011;65132;52.088;5.402;2023-07-16T14:55:23;2.70;;;1.20;;
76320;SDS011;65132;52.088;5.402;2023-07-16T14:57:53;3.58;;;1.10;;
76320;SDS011;65132;52.088;5.402;2023-07-16T15:00:22;4.60;;;1.67;;
76320;SDS011;65132;52.088;5.402;2023-07-16T15:05:32;5.13;;;1.38;;
76320;SDS011;65132;52.088;5.402;2023-07-16T15:08:01;6.28;;;1.35;;
76320;SDS011;65132;52.088;5.402;2023-07-16T15:10:27;4.65;;;1.38;;
76320;SDS011;65132;52.088;5.402;2023-07-16T15:13:11;3.80;;;1.15;;
76320;SDS011;65132;52.088;5.402;2023-07-16T15:15:46;3.45;;;0.98;;
76320;SDS011;65132;52.088;5.402;2023-07-16T15:18:13;4.20;;;1.27;;
76320;SDS011;65132;52.088;5.402;2023-07-16T15:20:40;2.58;;;1.27;;
76320;SDS011;65132;52.088;5.402;2023-07-16T15:23:18;1.95;;;0.90;;
76320;SDS011;65132;52.088;5.402;2023-07-16T15:25:45;5.07;;;1.08;;
76320;SDS011;65132;52.088;5.402;2023-07-16T15:28:11;6.07;;;1.00;;
76320;SDS011;65132;52.088;5.402;2023-07-16T15:30:48;3.47;;;0.85;;
76320;SDS011;65132;52.088;5.402;2023-07-16T15:33:23;6.35;;;1.20;;
76320;SDS011;65132;52.088;5.402;2023-07-16T15:35:52;4.43;;;0.90;;
76320;SDS011;65132;52.088;5.402;2023-07-16T15:38:21;4.43;;;1.05;;
76320;SDS011;65132;52.088;5.402;2023-07-16T15:40:50;3.80;;;1.27;;